Time;durP1;ratioP1;P1;durP2;ratioP2;P2;SDS_P1;SDS_P2;PMS_P1;PMS_P2;Temp;Humidity;BMP_temperature;BMP_pressure;BME280_temperature;BME280_humidity;BME280_pressure;Samples;Min_cycle;Max_cycle;Signal;HPM_P1;HPM_P2
2022/11/27 00:00:40;;;;;;;24.33;11.10;;;;;;;;;;4927663;28;20421;-62
2022/11/27 00:03:06;;;;;;;25.95;10.85;;;;;;;;;;4927784;28;20058;-62
2022/11/27 00:05:31;;;;;;;23.88;9.68;;;;;;;;;;4927591;28;20070;-62
2022/11/27 00:07:57;;;;;;;21.83;10.27;;;;;;;;;;4927425;28;20363;-64
2022/11/27 00:10:22;;;;;;;18.85;10.05;;;;;;;;;;4927807;28;20582;-62
2022/11/27 00:12:48;;;;;;;20.58;10.55;;;;;;;;;;4926559;28;20054;-63
2022/11/27 00:15:13;;;;;;;25.25;10.32;;;;;;;;;;4927639;28;20372;-62
2022/11/27 00:17:39;;;;;;;23.60;10.60;;;;;;;;;;4928300;28;20410;-62
2022/11/27 00:20:07;;;;;;;25.15;12.48;;;;;;;;;;4927466;28;20034;-61
2022/11/27 00:22:33;;;;;;;33.53;14.82;;;;;;;;;;4927130;28;20035;-63
2022/11/27 00:24:58;;;;;;;26.35;13.45;;;;;;;;;;4927136;28;20449;-62
2022/11/27 00:27:24;;;;;;;29.45;14.40;;;;;;;;;;4927155;28;20069;-63
2022/11/27 00:29:50;;;;;;;24.63;11.07;;;;;;;;;;4927285;28;20430;-62
2022/11/27 00:32:15;;;;;;;27.35;12.80;;;;;;;;;;4927524;28;20442;-62
2022/11/27 00:34:41;;;;;;;36.85;13.55;;;;;;;;;;4926980;28;20441;-62
2022/11/27 00:37:06;;;;;;;29.23;12.18;;;;;;;;;;4927924;28;20096;-63
2022/11/27 00:39:32;;;;;;;24.35;12.02;;;;;;;;;;4926963;28;20026;-62
2022/11/27 00:41:58;;;;;;;21.38;11.32;;;;;;;;;;4926818;28;20461;-63
2022/11/27 00:44:23;;;;;;;25.27;11.63;;;;;;;;;;4737604;28;5001358;-62
2022/11/27 00:46:49;;;;;;;26.92;10.73;;;;;;;;;;4927331;28;20448;-62
2022/11/27 00:49:15;;;;;;;26.35;12.15;;;;;;;;;;4927181;28;20030;-62
2022/11/27 00:51:41;;;;;;;21.38;10.43;;;;;;;;;;4927284;28;20479;-62
2022/11/27 00:54:07;;;;;;;23.05;11.50;;;;;;;;;;4928227;28;20361;-62
2022/11/27 00:56:37;;;;;;;36.88;13.55;;;;;;;;;;4926763;28;20070;-62
2022/11/27 00:59:04;;;;;;;29.70;12.63;;;;;;;;;;4927199;28;20389;-63
2022/11/27 01:01:39;;;;;;;23.48;11.20;;;;;;;;;;4930476;28;20112;-62
2022/11/27 01:04:07;;;;;;;27.98;10.38;;;;;;;;;;4938218;28;20441;-63
2022/11/27 01:06:33;;;;;;;25.55;11.18;;;;;;;;;;4946446;28;20064;-63
2022/11/27 01:08:59;;;;;;;30.10;10.73;;;;;;;;;;4946496;28;20336;-63
2022/11/27 01:11:30;;;;;;;29.17;11.20;;;;;;;;;;4945881;28;20055;-62
2022/11/27 01:13:59;;;;;;;51.72;20.75;;;;;;;;;;4946892;28;20433;-64
2022/11/27 01:16:27;;;;;;;70.85;26.35;;;;;;;;;;4946985;28;20352;-62
2022/11/27 01:18:56;;;;;;;37.43;15.40;;;;;;;;;;4946609;28;20041;-63
2022/11/27 01:21:23;;;;;;;28.58;13.35;;;;;;;;;;4946511;28;20322;-63
2022/11/27 01:23:50;;;;;;;31.42;14.52;;;;;;;;;;4945920;28;20330;-63
2022/11/27 01:26:17;;;;;;;30.05;13.75;;;;;;;;;;4945965;28;20423;-62
2022/11/27 01:28:44;;;;;;;28.10;12.15;;;;;;;;;;4948430;28;20538;-62
2022/11/27 01:31:18;;;;;;;25.27;11.48;;;;;;;;;;4946406;28;20046;-62
2022/11/27 01:33:44;;;;;;;24.35;12.18;;;;;;;;;;4946023;28;20453;-62
2022/11/27 01:36:13;;;;;;;23.00;11.10;;;;;;;;;;4947454;28;20080;-62
2022/11/27 01:38:38;;;;;;;21.07;10.07;;;;;;;;;;4945774;28;20487;-62
2022/11/27 01:41:18;;;;;;;23.80;11.13;;;;;;;;;;4945816;28;20464;-62
2022/11/27 01:43:50;;;;;;;24.80;12.48;;;;;;;;;;4929243;28;20380;-63
2022/11/27 01:46:29;;;;;;;23.63;10.65;;;;;;;;;;4946747;28;20511;-62
2022/11/27 01:49:09;;;;;;;;;;;;;;;;;;4951709;28;20370;-62
2022/11/27 01:52:10;;;;;;;21.92;9.18;;;;;;;;;;4933220;28;20283;-61
2022/11/27 01:55:02;;;;;;;20.88;9.48;;;;;;;;;;4949038;28;20543;-62
2022/11/27 01:57:37;;;;;;;17.67;9.65;;;;;;;;;;4927697;28;20479;-63
2022/11/27 02:00:05;;;;;;;21.73;9.77;;;;;;;;;;4950646;28;20330;-63
2022/11/27 02:02:31;;;;;;;23.20;11.30;;;;;;;;;;4948964;28;20380;-63
2022/11/27 02:04:56;;;;;;;22.13;10.85;;;;;;;;;;4948842;28;20168;-62
2022/11/27 02:07:22;;;;;;;22.15;10.73;;;;;;;;;;4949029;28;20460;-64
2022/11/27 02:09:47;;;;;;;24.88;10.98;;;;;;;;;;4930920;28;20476;-62
2022/11/27 02:12:49;;;;;;;26.58;10.45;;;;;;;;;;4950125;28;20100;-62
2022/11/27 02:15:36;;;;;;;47.85;16.55;;;;;;;;;;4949394;28;20465;-62
2022/11/27 02:18:30;;;;;;;57.33;21.23;;;;;;;;;;4916476;28;20357;-63
2022/11/27 02:21:25;;;;;;;29.90;13.40;;;;;;;;;;4948733;28;20030;-63
2022/11/27 02:24:42;;;;;;;26.73;11.98;;;;;;;;;;4932590;28;20468;-62
2022/11/27 02:27:29;;;;;;;26.55;11.80;;;;;;;;;;4919110;28;20367;-62
2022/11/27 02:29:58;;;;;;;27.08;11.07;;;;;;;;;;4948783;28;20456;-62
2022/11/27 02:32:34;;;;;;;28.48;12.00;;;;;;;;;;4931463;28;20377;-61
2022/11/27 02:35:19;;;;;;;28.60;12.60;;;;;;;;;;4931937;28;20038;-61
2022/11/27 02:37:57;;;;;;;23.35;10.77;;;;;;;;;;4931152;28;20589;-62
2022/11/27 02:40:35;;;;;;;23.65;10.45;;;;;;;;;;4931220;28;20437;-62
2022/11/27 02:43:28;;;;;;;24.20;11.48;;;;;;;;;;4932214;28;20476;-62
2022/11/27 02:45:55;;;;;;;30.40;12.07;;;;;;;;;;4948633;28;20060;-62
2022/11/27 02:48:28;;;;;;;24.38;12.70;;;;;;;;;;4931261;28;20344;-62
2022/11/27 02:50:54;;;;;;;26.88;11.27;;;;;;;;;;4931419;28;20158;-62
2022/11/27 02:53:30;;;;;;;22.95;10.50;;;;;;;;;;4930563;28;20084;-63
2022/11/27 02:55:57;;;;;;;21.08;10.13;;;;;;;;;;4931213;28;20441;-62
2022/11/27 02:58:26;;;;;;;21.35;9.25;;;;;;;;;;4931446;28;20361;-62
2022/11/27 03:00:52;;;;;;;24.63;10.25;;;;;;;;;;4930906;28;20464;-62
2022/11/27 03:03:24;;;;;;;24.02;9.50;;;;;;;;;;4930458;28;20437;-63
2022/11/27 03:05:59;;;;;;;22.92;10.57;;;;;;;;;;4931651;28;20336;-62
2022/11/27 03:08:46;;;;;;;28.10;13.50;;;;;;;;;;4947645;28;20349;-63
2022/11/27 03:11:14;;;;;;;22.60;10.88;;;;;;;;;;4948927;28;20384;-63
2022/11/27 03:13:48;;;;;;;19.77;9.60;;;;;;;;;;4947421;28;20404;-62
2022/11/27 03:16:42;;;;;;;22.17;10.25;;;;;;;;;;4930754;28;20029;-63
2022/11/27 03:19:53;;;;;;;19.08;9.18;;;;;;;;;;4948380;28;20564;-61
2022/11/27 03:22:19;;;;;;;17.60;10.00;;;;;;;;;;4947342;28;20437;-62
2022/11/27 03:24:45;;;;;;;22.15;10.55;;;;;;;;;;4948235;28;20483;-62
2022/11/27 03:27:14;;;;;;;19.40;9.35;;;;;;;;;;4948029;28;20368;-62
2022/11/27 03:29:51;;;;;;;24.95;11.38;;;;;;;;;;4949024;28;20534;-62
2022/11/27 03:32:17;;;;;;;27.85;12.73;;;;;;;;;;4931044;28;20048;-62
2022/11/27 03:34:43;;;;;;;35.22;14.38;;;;;;;;;;4947176;28;20432;-63
2022/11/27 03:37:09;;;;;;;24.55;12.05;;;;;;;;;;4947112;28;20435;-62
2022/11/27 03:39:35;;;;;;;22.80;11.70;;;;;;;;;;4947573;28;20361;-62
2022/11/27 03:42:47;;;;;;;24.58;11.07;;;;;;;;;;4930273;28;20419;-62
2022/11/27 03:45:21;;;;;;;20.85;9.27;;;;;;;;;;4947381;28;20444;-62
2022/11/27 03:48:27;;;;;;;32.28;12.20;;;;;;;;;;4947102;28;20053;-62
2022/11/27 03:51:37;;;;;;;22.60;10.63;;;;;;;;;;4947255;28;20308;-63
2022/11/27 03:54:33;;;;;;;22.55;10.90;;;;;;;;;;4932001;28;20345;-62
2022/11/27 03:57:26;;;;;;;20.10;9.82;;;;;;;;;;4931659;28;20073;-61
2022/11/27 03:59:55;;;;;;;23.25;12.35;;;;;;;;;;4930010;28;20364;-62
2022/11/27 04:02:50;;;;;;;21.70;11.75;;;;;;;;;;4929548;28;20491;-62
2022/11/27 04:05:17;;;;;;;20.75;9.85;;;;;;;;;;4947133;28;20428;-63
2022/11/27 04:07:43;;;;;;;23.55;10.85;;;;;;;;;;4947004;28;20476;-63
2022/11/27 04:10:10;;;;;;;18.42;10.25;;;;;;;;;;4946680;28;20500;-62
2022/11/27 04:12:35;;;;;;;18.83;9.60;;;;;;;;;;4947393;28;20515;-62
2022/11/27 04:15:01;;;;;;;22.70;10.93;;;;;;;;;;4946909;28;20403;-61
2022/11/27 04:17:27;;;;;;;22.98;10.60;;;;;;;;;;4946780;28;20353;-62
2022/11/27 04:19:52;;;;;;;27.92;11.50;;;;;;;;;;4946679;28;20348;-62
2022/11/27 04:22:18;;;;;;;26.33;13.20;;;;;;;;;;4946473;28;20341;-62
2022/11/27 04:24:43;;;;;;;28.20;12.48;;;;;;;;;;4947174;28;20030;-62
2022/11/27 04:27:09;;;;;;;30.75;12.63;;;;;;;;;;4947511;28;20420;-62
2022/11/27 04:29:37;;;;;;;24.52;11.20;;;;;;;;;;4947121;28;20450;-63
2022/11/27 04:32:04;;;;;;;23.70;11.65;;;;;;;;;;4946445;28;20392;-62
2022/11/27 04:34:30;;;;;;;22.65;9.80;;;;;;;;;;4946333;28;20437;-62
2022/11/27 04:36:55;;;;;;;21.00;11.65;;;;;;;;;;4946612;28;20055;-63
2022/11/27 04:39:21;;;;;;;22.00;10.35;;;;;;;;;;4948444;28;20417;-63
2022/11/27 04:41:47;;;;;;;26.75;13.05;;;;;;;;;;4946625;28;20463;-61
2022/11/27 04:44:13;;;;;;;21.02;10.52;;;;;;;;;;4946588;28;20479;-61
2022/11/27 04:46:39;;;;;;;18.58;10.23;;;;;;;;;;4946259;28;20475;-62
2022/11/27 04:49:04;;;;;;;20.13;9.70;;;;;;;;;;4946550;28;20349;-62
2022/11/27 04:51:30;;;;;;;21.00;10.45;;;;;;;;;;4946138;28;20380;-63
2022/11/27 04:53:55;;;;;;;19.17;10.10;;;;;;;;;;4947532;28;20540;-62
2022/11/27 04:56:21;;;;;;;31.83;14.32;;;;;;;;;;4947509;28;20482;-63
2022/11/27 04:58:46;;;;;;;24.08;11.20;;;;;;;;;;4928484;28;20460;-63
2022/11/27 05:01:12;;;;;;;23.75;9.30;;;;;;;;;;4946026;28;20384;-62
2022/11/27 05:03:37;;;;;;;20.13;11.40;;;;;;;;;;4947187;28;20502;-63
2022/11/27 05:06:03;;;;;;;27.23;13.48;;;;;;;;;;4945944;28;20112;-62
2022/11/27 05:08:30;;;;;;;28.42;11.20;;;;;;;;;;4947081;28;20353;-61
2022/11/27 05:11:07;;;;;;;17.85;9.00;;;;;;;;;;4947112;28;20337;-62
2022/11/27 05:13:33;;;;;;;18.45;9.35;;;;;;;;;;4945697;28;20386;-63
2022/11/27 05:15:59;;;;;;;19.95;9.85;;;;;;;;;;4947912;28;20044;-62
2022/11/27 05:18:25;;;;;;;17.38;8.88;;;;;;;;;;4946399;28;20441;-62
2022/11/27 05:21:01;;;;;;;24.88;10.63;;;;;;;;;;4948755;28;20502;-63
2022/11/27 05:23:27;;;;;;;27.38;11.90;;;;;;;;;;4950103;28;20056;-62
2022/11/27 05:25:53;;;;;;;25.55;11.57;;;;;;;;;;4951596;28;20421;-62
2022/11/27 05:28:19;;;;;;;28.20;12.25;;;;;;;;;;4950552;28;20103;-62
2022/11/27 05:30:46;;;;;;;30.27;13.35;;;;;;;;;;4949450;28;20368;-62
2022/11/27 05:33:11;;;;;;;27.02;12.15;;;;;;;;;;4949372;28;20568;-62
2022/11/27 05:35:37;;;;;;;31.00;13.40;;;;;;;;;;4949628;28;20433;-62
2022/11/27 05:38:03;;;;;;;25.33;11.68;;;;;;;;;;4951306;28;20332;-61
2022/11/27 05:40:28;;;;;;;21.75;9.68;;;;;;;;;;4949900;28;20468;-62
2022/11/27 05:42:54;;;;;;;20.33;9.40;;;;;;;;;;4950349;28;20415;-63
2022/11/27 05:45:19;;;;;;;20.73;8.80;;;;;;;;;;4949099;28;20057;-62
2022/11/27 05:47:45;;;;;;;21.25;8.80;;;;;;;;;;4950258;28;20322;-62
2022/11/27 05:50:10;;;;;;;19.45;9.18;;;;;;;;;;4949197;28;20388;-62
2022/11/27 05:52:36;;;;;;;21.90;8.75;;;;;;;;;;4949664;28;20440;-62
2022/11/27 05:55:01;;;;;;;15.63;8.70;;;;;;;;;;4949515;28;20441;-62
2022/11/27 05:57:27;;;;;;;17.55;8.48;;;;;;;;;;4949007;28;20437;-62
2022/11/27 05:59:52;;;;;;;14.45;7.22;;;;;;;;;;4948825;28;20420;-62
2022/11/27 06:02:18;;;;;;;21.85;9.32;;;;;;;;;;4950981;28;20135;-62
2022/11/27 06:04:44;;;;;;;28.98;11.90;;;;;;;;;;4949635;28;20109;-62
2022/11/27 06:07:09;;;;;;;23.90;10.63;;;;;;;;;;4951180;28;20033;-61
2022/11/27 06:09:38;;;;;;;28.33;12.13;;;;;;;;;;4949035;28;20305;-62
2022/11/27 06:12:03;;;;;;;26.15;10.70;;;;;;;;;;4951004;28;20432;-64
2022/11/27 06:14:30;;;;;;;27.70;12.13;;;;;;;;;;4948591;28;20554;-61
2022/11/27 06:16:56;;;;;;;23.27;11.23;;;;;;;;;;4950793;28;20437;-62
2022/11/27 06:19:22;;;;;;;32.53;12.73;;;;;;;;;;4948787;28;20467;-62
2022/11/27 06:21:48;;;;;;;25.90;11.55;;;;;;;;;;4950324;28;20425;-62
2022/11/27 06:24:13;;;;;;;25.63;12.32;;;;;;;;;;4949078;28;20464;-62
2022/11/27 06:26:39;;;;;;;28.95;15.68;;;;;;;;;;4948817;28;20483;-61
2022/11/27 06:29:04;;;;;;;17.55;9.73;;;;;;;;;;4898045;28;20461;-62
2022/11/27 06:31:31;;;;;;;20.58;9.93;;;;;;;;;;4947405;28;20463;-62
2022/11/27 06:33:58;;;;;;;21.52;11.52;;;;;;;;;;4948029;28;20336;-62
2022/11/27 06:36:29;;;;;;;15.82;9.07;;;;;;;;;;4885822;28;20164;-61
2022/11/27 06:38:54;;;;;;;15.95;7.45;;;;;;;;;;4948585;28;20543;-61
2022/11/27 06:41:23;;;;;;;19.65;9.40;;;;;;;;;;4948399;28;20507;-62
2022/11/27 06:43:49;;;;;;;17.50;8.32;;;;;;;;;;4947958;28;20530;-62
2022/11/27 06:46:19;;;;;;;14.77;7.85;;;;;;;;;;4948215;28;20372;-62
2022/11/27 06:48:46;;;;;;;15.43;6.90;;;;;;;;;;4948103;28;20468;-62
2022/11/27 06:51:15;;;;;;;13.82;7.10;;;;;;;;;;4948608;28;20440;-64
2022/11/27 06:53:41;;;;;;;;;;;;;;;;;;4948922;28;20375;-62
2022/11/27 06:56:14;;;;;;;16.40;7.55;;;;;;;;;;4948116;28;20253;-62
2022/11/27 06:58:40;;;;;;;15.80;7.15;;;;;;;;;;4948034;28;20499;-62
2022/11/27 07:01:11;;;;;;;16.00;8.10;;;;;;;;;;4947798;28;20052;-62
2022/11/27 07:03:36;;;;;;;19.95;9.27;;;;;;;;;;4947914;28;20109;-62
2022/11/27 07:06:05;;;;;;;24.50;12.45;;;;;;;;;;4948432;28;20033;-62
2022/11/27 07:08:31;;;;;;;38.30;19.17;;;;;;;;;;4930699;28;20056;-61
2022/11/27 07:11:06;;;;;;;28.95;16.58;;;;;;;;;;4947851;28;20460;-62
2022/11/27 07:13:32;;;;;;;25.15;12.82;;;;;;;;;;4947164;28;20420;-62
2022/11/27 07:16:03;;;;;;;23.48;12.50;;;;;;;;;;4947490;28;20066;-62
2022/11/27 07:18:32;;;;;;;17.92;8.60;;;;;;;;;;4948039;28;20110;-62
2022/11/27 07:20:58;;;;;;;;;;;;;;;;;;4948386;28;20433;-62
2022/11/27 07:23:23;;;;;;;17.23;7.03;;;;;;;;;;4947470;28;20362;-64
2022/11/27 07:25:49;;;;;;;16.30;7.97;;;;;;;;;;4948604;28;20461;-62
2022/11/27 07:28:14;;;;;;;13.55;7.25;;;;;;;;;;4948431;28;20420;-63
2022/11/27 07:30:40;;;;;;;25.08;7.65;;;;;;;;;;4947169;28;20503;-62
2022/11/27 07:33:05;;;;;;;13.82;6.75;;;;;;;;;;4949209;28;20477;-61
2022/11/27 07:35:31;;;;;;;12.75;6.55;;;;;;;;;;4947638;28;20510;-62
2022/11/27 07:37:56;;;;;;;14.85;7.68;;;;;;;;;;4948187;28;20330;-62
2022/11/27 07:40:22;;;;;;;16.20;7.72;;;;;;;;;;4948348;28;20348;-61
2022/11/27 07:42:47;;;;;;;13.40;7.03;;;;;;;;;;4947046;28;20388;-62
2022/11/27 07:45:13;;;;;;;11.70;6.00;;;;;;;;;;4896425;28;20372;-62
2022/11/27 07:47:38;;;;;;;13.95;6.55;;;;;;;;;;4947960;28;20026;-61
2022/11/27 07:50:07;;;;;;;14.25;8.75;;;;;;;;;;4947841;28;20350;-62
2022/11/27 07:52:35;;;;;;;14.40;6.97;;;;;;;;;;4947850;28;20433;-64
2022/11/27 07:55:00;;;;;;;14.10;7.25;;;;;;;;;;4897100;28;20480;-63
2022/11/27 07:57:26;;;;;;;11.85;6.20;;;;;;;;;;4897148;28;20321;-62
2022/11/27 07:59:52;;;;;;;11.05;5.93;;;;;;;;;;4946750;28;20444;-62
2022/11/27 08:02:18;;;;;;;10.73;6.38;;;;;;;;;;4947211;28;20089;-62
2022/11/27 08:04:43;;;;;;;10.82;5.80;;;;;;;;;;4947254;28;20452;-63
2022/11/27 08:07:09;;;;;;;13.95;7.18;;;;;;;;;;4946893;28;20503;-62
2022/11/27 08:09:34;;;;;;;12.20;7.20;;;;;;;;;;4946871;28;20528;-62
2022/11/27 08:12:00;;;;;;;14.80;7.28;;;;;;;;;;4948051;28;20387;-62
2022/11/27 08:14:25;;;;;;;20.02;8.38;;;;;;;;;;4945985;28;20053;-62
2022/11/27 08:16:51;;;;;;;18.95;9.48;;;;;;;;;;4897011;28;20360;-62
2022/11/27 08:19:16;;;;;;;21.23;9.35;;;;;;;;;;4945731;28;20049;-62
2022/11/27 08:21:42;;;;;;;16.65;9.32;;;;;;;;;;4946695;28;20456;-63
2022/11/27 08:24:08;;;;;;;16.45;9.07;;;;;;;;;;4946612;28;20515;-62
2022/11/27 08:26:34;;;;;;;16.42;8.55;;;;;;;;;;4946765;28;20030;-63
2022/11/27 08:28:59;;;;;;;16.92;8.55;;;;;;;;;;4948316;28;20463;-62
2022/11/27 08:31:25;;;;;;;26.55;12.38;;;;;;;;;;4947070;28;20492;-63
2022/11/27 08:33:50;;;;;;;21.48;10.82;;;;;;;;;;4946681;28;20495;-62
2022/11/27 08:36:16;;;;;;;18.75;10.40;;;;;;;;;;4946720;28;20546;-62
2022/11/27 08:38:41;;;;;;;20.13;10.45;;;;;;;;;;4946436;28;20030;-62
2022/11/27 08:41:07;;;;;;;28.38;12.52;;;;;;;;;;4946250;28;20483;-62
2022/11/27 08:43:33;;;;;;;16.85;8.57;;;;;;;;;;4946134;28;20542;-62
2022/11/27 08:46:03;;;;;;;14.57;7.70;;;;;;;;;;4946528;28;20400;-62
2022/11/27 08:48:29;;;;;;;18.98;8.77;;;;;;;;;;4946453;28;20038;-62
2022/11/27 08:50:54;;;;;;;21.65;11.35;;;;;;;;;;4946691;28;20449;-63
2022/11/27 08:53:20;;;;;;;22.40;10.73;;;;;;;;;;4946257;28;20429;-62
2022/11/27 08:55:46;;;;;;;17.88;8.48;;;;;;;;;;4947167;28;20416;-63
2022/11/27 08:58:11;;;;;;;20.17;8.45;;;;;;;;;;4947387;28;20057;-61
2022/11/27 10:09:20;;;;;;;11.57;5.68;;;;;;;;;;5018700;27;21046;-62
2022/11/27 10:12:10;;;;;;;19.63;13.80;;;;;;;;;;4994599;28;20455;-64
2022/11/27 10:15:05;;;;;;;18.30;11.38;;;;;;;;;;4997230;28;20517;-65
2022/11/27 10:17:59;;;;;;;23.65;11.68;;;;;;;;;;4999518;28;20078;-64
2022/11/27 10:20:42;;;;;;;29.00;14.02;;;;;;;;;;5015531;28;20424;-65
2022/11/27 10:23:41;;;;;;;32.63;15.63;;;;;;;;;;5016794;28;20094;-65
2022/11/27 10:26:18;;;;;;;47.75;19.35;;;;;;;;;;4995867;28;20304;-62
2022/11/27 10:29:25;;;;;;;28.48;14.80;;;;;;;;;;5001837;28;20059;-62
2022/11/27 10:31:57;;;;;;;21.83;14.75;;;;;;;;;;4995808;28;20490;-64
2022/11/27 10:34:38;;;;;;;22.40;12.70;;;;;;;;;;4994441;28;20423;-65
2022/11/27 10:51:00;;;;;;;14.88;8.25;;;;;;;;;;5074600;27;20840;-64
2022/11/27 11:06:25;;;;;;;12.68;8.00;;;;;;;;;;5043628;27;20690;-64
2022/11/27 11:09:31;;;;;;;14.30;10.00;;;;;;;;;;5022460;28;20109;-65
2022/11/27 11:12:20;;;;;;;20.88;12.63;;;;;;;;;;5021463;28;20499;-62
2022/11/27 11:14:57;;;;;;;21.13;11.52;;;;;;;;;;5021933;28;20333;-64
2022/11/27 11:17:33;;;;;;;20.80;11.32;;;;;;;;;;5020340;28;20560;-65
2022/11/27 11:19:58;;;;;;;22.35;11.73;;;;;;;;;;5020093;28;20497;-65
2022/11/27 11:22:24;;;;;;;13.90;8.63;;;;;;;;;;5022490;28;20354;-65
2022/11/27 11:24:51;;;;;;;19.48;9.02;;;;;;;;;;5023469;28;20071;-62
2022/11/27 11:27:29;;;;;;;14.65;8.20;;;;;;;;;;5022087;28;20081;-63
2022/11/27 11:30:02;;;;;;;12.00;7.63;;;;;;;;;;5021907;28;20036;-64
2022/11/27 11:32:32;;;;;;;12.30;6.75;;;;;;;;;;4999351;28;20388;-64
2022/11/27 11:35:07;;;;;;;16.60;8.77;;;;;;;;;;5022765;28;20477;-63
2022/11/27 11:37:37;;;;;;;13.25;6.72;;;;;;;;;;5022176;28;20032;-64
2022/11/27 11:40:19;;;;;;;19.50;9.43;;;;;;;;;;5020393;28;20533;-64
2022/11/27 11:43:02;;;;;;;17.13;8.85;;;;;;;;;;5022490;28;20465;-64
2022/11/27 11:45:30;;;;;;;13.68;7.68;;;;;;;;;;5022789;28;20328;-64
2022/11/27 11:48:00;;;;;;;15.90;8.23;;;;;;;;;;5020995;28;20404;-64
2022/11/27 11:50:31;;;;;;;14.68;8.85;;;;;;;;;;5001433;28;20795;-63
2022/11/27 11:53:21;;;;;;;20.75;9.82;;;;;;;;;;5018475;28;20458;-63
2022/11/27 11:56:28;;;;;;;22.95;12.13;;;;;;;;;;5021053;28;20350;-63
2022/11/27 11:59:05;;;;;;;25.83;11.30;;;;;;;;;;5019603;28;20489;-63
2022/11/27 12:01:53;;;;;;;24.48;10.68;;;;;;;;;;5022564;28;20389;-64
2022/11/27 12:05:02;;;;;;;18.60;9.40;;;;;;;;;;5022117;28;20508;-65
2022/11/27 12:08:10;;;;;;;18.27;10.02;;;;;;;;;;5009036;28;20308;-63
2022/11/27 12:11:17;;;;;;;14.00;8.13;;;;;;;;;;5008892;28;20450;-63
2022/11/27 12:14:00;;;;;;;17.88;7.80;;;;;;;;;;4987649;28;20439;-63
2022/11/27 12:17:01;;;;;;;16.55;7.45;;;;;;;;;;5009081;28;20347;-65
2022/11/27 12:20:04;;;;;;;13.95;8.13;;;;;;;;;;2135721;29;10001975;-64
2022/11/27 12:23:00;;;;;;;14.15;7.75;;;;;;;;;;4970106;28;20033;-64
2022/11/27 12:25:56;;;;;;;13.80;7.15;;;;;;;;;;4952474;28;20507;-63
2022/11/27 12:29:02;;;;;;;11.95;6.55;;;;;;;;;;4952901;28;20348;-63
2022/11/27 12:32:42;;;;;;;24.50;11.25;;;;;;;;;;4971257;28;20030;-65
2022/11/27 12:36:06;;;;;;;19.80;9.23;;;;;;;;;;4969386;28;20483;-63
2022/11/27 12:39:00;;;;;;;16.23;8.52;;;;;;;;;;4952288;28;20479;-63
2022/11/27 12:41:42;;;;;;;19.23;7.70;;;;;;;;;;4969161;28;20523;-63
2022/11/27 12:44:55;;;;;;;26.38;10.68;;;;;;;;;;4969030;28;20362;-63
2022/11/27 12:47:42;;;;;;;19.85;9.57;;;;;;;;;;4943174;28;20112;-63
2022/11/27 12:50:22;;;;;;;14.75;8.02;;;;;;;;;;4969300;28;20356;-64
2022/11/27 12:53:10;;;;;;;14.75;7.53;;;;;;;;;;4969207;28;20440;-64
2022/11/27 12:55:39;;;;;;;46.85;21.85;;;;;;;;;;4953165;28;20341;-65
2022/11/27 12:58:35;;;;;;;49.10;20.10;;;;;;;;;;4967546;28;20585;-63
2022/11/27 13:01:08;;;;;;;27.15;13.18;;;;;;;;;;4950148;28;20112;-63
2022/11/27 13:03:53;;;;;;;17.55;9.23;;;;;;;;;;4968155;28;20324;-62
2022/11/27 13:06:23;;;;;;;52.58;21.58;;;;;;;;;;4948213;28;20412;-64
2022/11/27 13:09:23;;;;;;;68.22;26.23;;;;;;;;;;4947317;28;20464;-64
2022/11/27 13:11:49;;;;;;;26.05;12.13;;;;;;;;;;4948845;28;20360;-64
2022/11/27 13:14:23;;;;;;;39.45;14.82;;;;;;;;;;4948449;28;20391;-63
2022/11/27 13:17:02;;;;;;;59.42;24.13;;;;;;;;;;4948224;28;20345;-63
2022/11/27 13:19:33;;;;;;;29.10;11.45;;;;;;;;;;4949205;28;20103;-63
2022/11/27 13:22:03;;;;;;;25.23;11.50;;;;;;;;;;4947382;28;20439;-63
2022/11/27 13:24:28;;;;;;;30.80;12.98;;;;;;;;;;4949377;28;20484;-63
2022/11/27 13:27:03;;;;;;;38.65;14.93;;;;;;;;;;4948706;28;20448;-64
2022/11/27 13:29:57;;;;;;;38.35;14.55;;;;;;;;;;4948311;28;20456;-64
2022/11/27 13:32:54;;;;;;;34.42;12.70;;;;;;;;;;4949338;28;20436;-64
2022/11/27 13:35:36;;;;;;;23.73;10.48;;;;;;;;;;4948863;28;20546;-63
2022/11/27 13:38:09;;;;;;;22.23;11.05;;;;;;;;;;4950846;28;20037;-64
2022/11/27 13:40:42;;;;;;;16.10;7.65;;;;;;;;;;4947073;28;20487;-62
2022/11/27 13:43:30;;;;;;;18.90;8.20;;;;;;;;;;4948505;28;20534;-64
2022/11/27 13:46:19;;;;;;;10.70;5.63;;;;;;;;;;4949308;28;20440;-64
2022/11/27 13:48:56;;;;;;;15.18;7.63;;;;;;;;;;4948802;28;20499;-63
2022/11/27 13:51:42;;;;;;;14.70;7.07;;;;;;;;;;4947665;28;20420;-64
2022/11/27 13:54:18;;;;;;;14.18;6.50;;;;;;;;;;4882142;28;20412;-63
2022/11/27 13:56:44;;;;;;;15.88;6.85;;;;;;;;;;4943496;28;20412;-63
2022/11/27 13:59:24;;;;;;;54.15;17.70;;;;;;;;;;4948052;28;20440;-67
2022/11/27 14:02:04;;;;;;;25.08;10.43;;;;;;;;;;4947090;28;20038;-63
2022/11/27 14:04:31;;;;;;;36.92;13.35;;;;;;;;;;4957896;28;20485;-64
2022/11/27 14:07:08;;;;;;;28.33;11.32;;;;;;;;;;4969150;28;20028;-63
2022/11/27 14:09:48;;;;;;;31.27;11.00;;;;;;;;;;4987500;28;20328;-64
2022/11/27 14:12:16;;;;;;;50.10;18.23;;;;;;;;;;4986927;28;20533;-63
2022/11/27 14:14:44;;;;;;;37.78;13.02;;;;;;;;;;4986894;28;20297;-63
2022/11/27 14:17:42;;;;;;;24.45;11.13;;;;;;;;;;4969959;28;20577;-64
2022/11/27 14:20:17;;;;;;;17.87;8.80;;;;;;;;;;4987039;28;20459;-65
2022/11/27 14:22:47;;;;;;;25.65;10.40;;;;;;;;;;4988965;28;20379;-63
2022/11/27 14:25:32;;;;;;;26.27;12.95;;;;;;;;;;4986914;28;20390;-63
2022/11/27 14:28:14;;;;;;;25.92;11.70;;;;;;;;;;4969855;28;20451;-64
2022/11/27 14:30:49;;;;;;;30.83;15.32;;;;;;;;;;4971432;28;20374;-63
2022/11/27 14:33:26;;;;;;;25.90;12.70;;;;;;;;;;4988114;28;20434;-63
2022/11/27 14:36:04;;;;;;;22.95;11.68;;;;;;;;;;4986880;28;20434;-62
2022/11/27 14:38:33;;;;;;;22.90;11.48;;;;;;;;;;4986850;28;20400;-63
2022/11/27 14:41:21;;;;;;;39.03;17.35;;;;;;;;;;4986161;28;20041;-64
2022/11/27 14:43:47;;;;;;;32.83;15.07;;;;;;;;;;4987054;28;20386;-64
2022/11/27 14:46:19;;;;;;;34.83;14.40;;;;;;;;;;4986921;28;20555;-63
2022/11/27 14:48:56;;;;;;;16.73;9.90;;;;;;;;;;4987020;28;20466;-63
2022/11/27 14:51:31;;;;;;;35.75;15.43;;;;;;;;;;4987285;28;20338;-62
2022/11/27 14:54:16;;;;;;;58.65;19.25;;;;;;;;;;4969760;28;20512;-63
2022/11/27 14:56:43;;;;;;;38.65;15.02;;;;;;;;;;4986919;28;20641;-63
2022/11/27 14:59:18;;;;;;;34.80;15.27;;;;;;;;;;4986803;28;20419;-63
2022/11/27 15:01:45;;;;;;;39.80;16.02;;;;;;;;;;4969652;28;20467;-63
2022/11/27 15:04:27;;;;;;;44.25;17.15;;;;;;;;;;4986016;28;20495;-63
2022/11/27 15:06:55;;;;;;;46.15;18.40;;;;;;;;;;4986911;28;20331;-65
2022/11/27 15:09:29;;;;;;;38.88;17.05;;;;;;;;;;4986574;28;20316;-63
2022/11/27 15:12:07;;;;;;;29.17;13.82;;;;;;;;;;4968049;28;20541;-63
2022/11/27 15:14:34;;;;;;;19.03;9.70;;;;;;;;;;4987123;28;20435;-63
2022/11/27 15:17:00;;;;;;;15.50;8.30;;;;;;;;;;4987708;28;20471;-63
2022/11/27 15:19:34;;;;;;;18.80;10.38;;;;;;;;;;4986638;28;20457;-63
2022/11/27 15:22:00;;;;;;;24.10;13.68;;;;;;;;;;4987029;28;20490;-63
2022/11/27 15:24:35;;;;;;;31.70;13.10;;;;;;;;;;4985642;28;20471;-65
2022/11/27 15:27:13;;;;;;;20.20;10.00;;;;;;;;;;4832585;28;20479;-63
2022/11/27 15:29:39;;;;;;;19.95;8.73;;;;;;;;;;4961228;28;20029;-63
2022/11/27 15:32:49;;;;;;;13.85;6.68;;;;;;;;;;4966871;28;20440;-63
2022/11/27 15:35:21;;;;;;;14.40;6.88;;;;;;;;;;4960723;28;20453;-63
2022/11/27 15:37:47;;;;;;;15.40;7.90;;;;;;;;;;4966166;28;20418;-64
2022/11/27 15:40:39;;;;;;;9.57;5.30;;;;;;;;;;4948946;28;20347;-63
2022/11/27 15:43:13;;;;;;;8.80;4.85;;;;;;;;;;4970815;28;20347;-63
2022/11/27 15:45:40;;;;;;;6.05;3.95;;;;;;;;;;4970651;28;20494;-63
2022/11/27 15:48:14;;;;;;;6.75;3.97;;;;;;;;;;4952739;28;20359;-64
2022/11/27 15:50:40;;;;;;;6.53;4.20;;;;;;;;;;4970111;28;20391;-63
2022/11/27 15:53:05;;;;;;;31.02;13.52;;;;;;;;;;4969782;28;20107;-63
2022/11/27 15:55:32;;;;;;;41.28;18.88;;;;;;;;;;4970232;28;20467;-63
2022/11/27 15:57:58;;;;;;;33.97;14.15;;;;;;;;;;4970014;28;20345;-63
2022/11/27 16:00:24;;;;;;;33.13;15.85;;;;;;;;;;4970843;28;20364;-63
2022/11/27 16:02:51;;;;;;;27.70;11.70;;;;;;;;;;4970125;28;20468;-63
2022/11/27 16:05:17;;;;;;;34.50;15.60;;;;;;;;;;4969724;28;20427;-64
2022/11/27 16:07:43;;;;;;;33.80;15.25;;;;;;;;;;4970051;28;20432;-64
2022/11/27 16:10:10;;;;;;;36.95;18.10;;;;;;;;;;4969685;28;20444;-63
2022/11/27 16:12:37;;;;;;;22.33;12.00;;;;;;;;;;4970483;28;20321;-63
2022/11/27 16:15:08;;;;;;;14.65;7.97;;;;;;;;;;4970044;28;20034;-63
2022/11/27 16:17:34;;;;;;;17.75;9.75;;;;;;;;;;4969956;28;20548;-63
2022/11/27 16:19:59;;;;;;;16.50;7.97;;;;;;;;;;4969898;28;20416;-62
2022/11/27 16:22:25;;;;;;;16.95;9.55;;;;;;;;;;4969792;28;20529;-64
2022/11/27 16:24:50;;;;;;;26.75;12.95;;;;;;;;;;4970838;28;20340;-62
2022/11/27 16:27:16;;;;;;;34.88;14.85;;;;;;;;;;4970664;28;20486;-62
2022/11/27 16:29:42;;;;;;;37.10;17.98;;;;;;;;;;4969692;28;20419;-62
2022/11/27 16:32:07;;;;;;;45.38;19.13;;;;;;;;;;4969543;28;20444;-63
2022/11/27 16:34:33;;;;;;;50.90;20.83;;;;;;;;;;4970564;28;20439;-63